Pagrindinis puslapis
METAR-TAF:

METAR-TAF

Oro uostai :

Grand Terkas, Terksas ir Kaikosas

platuma: 21-26-40N, ilguma: 071-08-32W, Aukštis: 4 m

Dabartinis oras

Ataskaita buvo paskelbta 13 valandos ir 51 minutes, ne 00:00 UTC
Vėjas 8 kt iš Rytų/Pietryčių
Temperatūra 28°C
Drėgmė 70%
Slėgis 1016 hPa
Matomumas 10 km arba daugiau
Išsisklaidę debesys ne aukštis 1500 ft

METAR: MBGT 230000Z 12008KT 9999 SCT015 28/22 Q1016

Laikas: 09:51 (13:51 UTC)

Prognozė

Ataskaita buvo paskelbta 3 valandos ir 21 minutes, ne 10:30 UTC
Prognozė galioja nuo 23 metu 12 UTC su 24 metu 12 UTC
Vėjas 10 kt iš Rytų su gūsio iki 20 kt
Matomumas 10 km arba daugiau
Mažai debesys ne aukštis 1800 ft
Su prošvaistėmis ne aukštis 3000 ft

TAF: MBGT 231030Z 2312/2412 10010G20KT 9999 FEW018 BKN030

Orai ataskaitas ir orų prognozės (METAR, TAF).

turimą stotys yra geltonos ir raudonos taškus žemėlapyje.

Perkelti pele per norėdami pamatyti stoties vardą.

Tada spustelėkite, norėdami matyti oro stebėjimo ir prognozės.

Norėdami pakeisti žemėlapį: spustelėkite ant žalios mygtukų su juodo kryžiaus žemyn,; žalią mygtuką su brūkšneliu, jei norite nutolinti; arba žalių rodyklių gretimoms žemėlapius.


METAR-TAF: